sensor_id;sensor_type;location;lat;lon;timestamp;P1;durP1;ratioP1;P2;durP2;ratioP2
60896;SDS011;46749;32.932;-117.130;2023-08-08T00:02:18;5.68;;;2.10;;
60896;SDS011;46749;32.932;-117.130;2023-08-08T00:04:44;3.42;;;2.25;;
60896;SDS011;46749;32.932;-117.130;2023-08-08T00:07:10;5.40;;;2.85;;
60896;SDS011;46749;32.932;-117.130;2023-08-08T00:09:37;5.93;;;2.75;;
60896;SDS011;46749;32.932;-117.130;2023-08-08T00:12:03;4.50;;;2.65;;
60896;SDS011;46749;32.932;-117.130;2023-08-08T00:14:29;4.13;;;2.45;;
60896;SDS011;46749;32.932;-117.130;2023-08-08T00:16:56;3.38;;;2.20;;
60896;SDS011;46749;32.932;-117.130;2023-08-08T00:19:22;6.13;;;2.25;;
60896;SDS011;46749;32.932;-117.130;2023-08-08T00:21:48;4.28;;;2.15;;
60896;SDS011;46749;32.932;-117.130;2023-08-08T00:24:14;4.82;;;2.28;;
60896;SDS011;46749;32.932;-117.130;2023-08-08T00:26:40;3.58;;;1.92;;
60896;SDS011;46749;32.932;-117.130;2023-08-08T00:29:06;4.32;;;2.08;;
60896;SDS011;46749;32.932;-117.130;2023-08-08T00:31:33;5.47;;;2.13;;
60896;SDS011;46749;32.932;-117.130;2023-08-08T00:33:59;4.13;;;2.38;;
60896;SDS011;46749;32.932;-117.130;2023-08-08T00:36:25;4.60;;;2.13;;
60896;SDS011;46749;32.932;-117.130;2023-08-08T00:38:51;4.72;;;1.83;;
60896;SDS011;46749;32.932;-117.130;2023-08-08T00:41:17;5.18;;;2.00;;
60896;SDS011;46749;32.932;-117.130;2023-08-08T00:43:43;5.50;;;2.08;;
60896;SDS011;46749;32.932;-117.130;2023-08-08T00:46:10;3.45;;;2.03;;
60896;SDS011;46749;32.932;-117.130;2023-08-08T00:48:36;4.85;;;2.00;;
60896;SDS011;46749;32.932;-117.130;2023-08-08T00:51:03;5.45;;;2.00;;
60896;SDS011;46749;32.932;-117.130;2023-08-08T00:53:29;5.03;;;2.03;;
60896;SDS011;46749;32.932;-117.130;2023-08-08T00:55:58;4.55;;;2.20;;
60896;SDS011;46749;32.932;-117.130;2023-08-08T00:58:25;3.97;;;2.03;;
60896;SDS011;46749;32.932;-117.130;2023-08-08T01:00:52;4.57;;;2.30;;
60896;SDS011;46749;32.932;-117.130;2023-08-08T01:03:22;4.35;;;2.08;;
60896;SDS011;46749;32.932;-117.130;2023-08-08T01:05:51;4.88;;;1.67;;
60896;SDS011;46749;32.932;-117.130;2023-08-08T01:08:26;4.68;;;2.20;;
60896;SDS011;46749;32.932;-117.130;2023-08-08T01:10:58;4.45;;;1.67;;
60896;SDS011;46749;32.932;-117.130;2023-08-08T01:13:25;4.40;;;2.25;;
60896;SDS011;46749;32.932;-117.130;2023-08-08T01:15:53;5.20;;;1.70;;
60896;SDS011;46749;32.932;-117.130;2023-08-08T01:18:22;4.68;;;1.65;;
60896;SDS011;46749;32.932;-117.130;2023-08-08T01:20:50;4.68;;;1.92;;
60896;SDS011;46749;32.932;-117.130;2023-08-08T01:26:00;4.35;;;1.80;;
60896;SDS011;46749;32.932;-117.130;2023-08-08T01:28:27;4.53;;;1.70;;
60896;SDS011;46749;32.932;-117.130;2023-08-08T01:30:53;5.25;;;1.70;;
60896;SDS011;46749;32.932;-117.130;2023-08-08T01:33:20;4.03;;;1.55;;
60896;SDS011;46749;32.932;-117.130;2023-08-08T01:36:04;4.75;;;1.75;;
60896;SDS011;46749;32.932;-117.130;2023-08-08T01:38:43;4.53;;;1.42;;
60896;SDS011;46749;32.932;-117.130;2023-08-08T01:41:13;6.35;;;1.40;;
60896;SDS011;46749;32.932;-117.130;2023-08-08T01:43:41;5.65;;;1.75;;
60896;SDS011;46749;32.932;-117.130;2023-08-08T01:46:07;6.82;;;1.73;;
60896;SDS011;46749;32.932;-117.130;2023-08-08T01:48:35;4.65;;;2.00;;
60896;SDS011;46749;32.932;-117.130;2023-08-08T01:51:01;5.05;;;1.40;;
60896;SDS011;46749;32.932;-117.130;2023-08-08T01:53:28;4.18;;;1.52;;
60896;SDS011;46749;32.932;-117.130;2023-08-08T01:55:54;5.28;;;1.92;;
60896;SDS011;46749;32.932;-117.130;2023-08-08T01:58:20;4.97;;;1.60;;
60896;SDS011;46749;32.932;-117.130;2023-08-08T02:00:46;3.65;;;1.80;;
60896;SDS011;46749;32.932;-117.130;2023-08-08T02:03:13;5.32;;;1.75;;
60896;SDS011;46749;32.932;-117.130;2023-08-08T02:05:39;7.55;;;2.00;;
60896;SDS011;46749;32.932;-117.130;2023-08-08T02:08:05;4.72;;;1.50;;
60896;SDS011;46749;32.932;-117.130;2023-08-08T02:10:32;4.60;;;1.77;;
60896;SDS011;46749;32.932;-117.130;2023-08-08T02:12:58;5.45;;;1.88;;
60896;SDS011;46749;32.932;-117.130;2023-08-08T02:15:24;4.97;;;1.38;;
60896;SDS011;46749;32.932;-117.130;2023-08-08T02:17:52;3.65;;;1.42;;
60896;SDS011;46749;32.932;-117.130;2023-08-08T02:20:19;4.82;;;1.60;;
60896;SDS011;46749;32.932;-117.130;2023-08-08T02:22:45;4.47;;;1.30;;
60896;SDS011;46749;32.932;-117.130;2023-08-08T02:25:11;4.47;;;1.30;;
60896;SDS011;46749;32.932;-117.130;2023-08-08T02:27:38;3.80;;;1.38;;
60896;SDS011;46749;32.932;-117.130;2023-08-08T02:30:04;5.75;;;1.30;;
60896;SDS011;46749;32.932;-117.130;2023-08-08T02:32:31;3.72;;;1.30;;
60896;SDS011;46749;32.932;-117.130;2023-08-08T02:34:57;4.32;;;1.70;;
60896;SDS011;46749;32.932;-117.130;2023-08-08T02:37:23;4.50;;;1.52;;
60896;SDS011;46749;32.932;-117.130;2023-08-08T02:39:50;4.10;;;1.27;;
60896;SDS011;46749;32.932;-117.130;2023-08-08T02:42:16;4.38;;;1.20;;
60896;SDS011;46749;32.932;-117.130;2023-08-08T02:44:43;4.85;;;1.40;;
60896;SDS011;46749;32.932;-117.130;2023-08-08T02:47:11;5.20;;;1.50;;
60896;SDS011;46749;32.932;-117.130;2023-08-08T02:49:37;3.15;;;1.40;;
60896;SDS011;46749;32.932;-117.130;2023-08-08T02:52:04;3.30;;;1.00;;
60896;SDS011;46749;32.932;-117.130;2023-08-08T02:54:30;4.22;;;1.45;;
60896;SDS011;46749;32.932;-117.130;2023-08-08T02:56:57;4.18;;;1.20;;
60896;SDS011;46749;32.932;-117.130;2023-08-08T02:59:23;4.85;;;1.30;;
60896;SDS011;46749;32.932;-117.130;2023-08-08T03:01:50;6.35;;;1.65;;
60896;SDS011;46749;32.932;-117.130;2023-08-08T03:04:17;3.85;;;1.30;;
60896;SDS011;46749;32.932;-117.130;2023-08-08T03:06:44;4.57;;;1.38;;
60896;SDS011;46749;32.932;-117.130;2023-08-08T03:09:10;3.20;;;1.40;;
60896;SDS011;46749;32.932;-117.130;2023-08-08T03:11:37;5.22;;;1.35;;
60896;SDS011;46749;32.932;-117.130;2023-08-08T03:14:06;3.90;;;1.17;;
60896;SDS011;46749;32.932;-117.130;2023-08-08T03:16:34;4.93;;;1.20;;
60896;SDS011;46749;32.932;-117.130;2023-08-08T03:19:00;3.90;;;1.13;;
60896;SDS011;46749;32.932;-117.130;2023-08-08T03:21:26;4.68;;;1.10;;
60896;SDS011;46749;32.932;-117.130;2023-08-08T03:23:53;5.45;;;1.27;;
60896;SDS011;46749;32.932;-117.130;2023-08-08T03:26:19;3.03;;;1.20;;
60896;SDS011;46749;32.932;-117.130;2023-08-08T03:28:45;3.83;;;1.05;;
60896;SDS011;46749;32.932;-117.130;2023-08-08T03:31:16;4.38;;;1.27;;
60896;SDS011;46749;32.932;-117.130;2023-08-08T03:33:43;3.47;;;1.30;;
60896;SDS011;46749;32.932;-117.130;2023-08-08T03:36:09;4.40;;;1.50;;
60896;SDS011;46749;32.932;-117.130;2023-08-08T03:38:35;5.20;;;1.50;;
60896;SDS011;46749;32.932;-117.130;2023-08-08T03:41:03;5.22;;;1.85;;
60896;SDS011;46749;32.932;-117.130;2023-08-08T03:43:30;4.88;;;1.20;;
60896;SDS011;46749;32.932;-117.130;2023-08-08T03:45:56;4.63;;;1.20;;
60896;SDS011;46749;32.932;-117.130;2023-08-08T03:48:22;4.07;;;1.23;;
60896;SDS011;46749;32.932;-117.130;2023-08-08T03:50:48;3.00;;;1.17;;
60896;SDS011;46749;32.932;-117.130;2023-08-08T03:53:15;3.00;;;1.20;;
60896;SDS011;46749;32.932;-117.130;2023-08-08T03:55:41;5.82;;;1.90;;
60896;SDS011;46749;32.932;-117.130;2023-08-08T03:58:07;4.93;;;1.52;;
60896;SDS011;46749;32.932;-117.130;2023-08-08T04:00:33;6.75;;;1.23;;
60896;SDS011;46749;32.932;-117.130;2023-08-08T04:02:59;3.42;;;1.15;;
60896;SDS011;46749;32.932;-117.130;2023-08-08T04:05:26;5.82;;;1.15;;
60896;SDS011;46749;32.932;-117.130;2023-08-08T04:07:52;4.50;;;1.20;;
60896;SDS011;46749;32.932;-117.130;2023-08-08T04:10:18;3.92;;;1.30;;
60896;SDS011;46749;32.932;-117.130;2023-08-08T04:12:44;5.53;;;1.52;;
60896;SDS011;46749;32.932;-117.130;2023-08-08T04:15:10;3.88;;;1.15;;
60896;SDS011;46749;32.932;-117.130;2023-08-08T04:17:36;7.15;;;1.30;;
60896;SDS011;46749;32.932;-117.130;2023-08-08T04:20:03;4.10;;;1.20;;
60896;SDS011;46749;32.932;-117.130;2023-08-08T04:22:31;4.43;;;1.02;;
60896;SDS011;46749;32.932;-117.130;2023-08-08T04:24:57;6.05;;;1.20;;
60896;SDS011;46749;32.932;-117.130;2023-08-08T04:27:23;5.70;;;1.27;;
60896;SDS011;46749;32.932;-117.130;2023-08-08T04:29:49;3.35;;;0.93;;
60896;SDS011;46749;32.932;-117.130;2023-08-08T04:32:15;5.07;;;1.50;;
60896;SDS011;46749;32.932;-117.130;2023-08-08T04:34:42;3.15;;;1.10;;
60896;SDS011;46749;32.932;-117.130;2023-08-08T04:37:08;5.32;;;1.20;;
60896;SDS011;46749;32.932;-117.130;2023-08-08T04:39:34;3.38;;;1.00;;
60896;SDS011;46749;32.932;-117.130;2023-08-08T04:42:00;3.65;;;1.13;;
60896;SDS011;46749;32.932;-117.130;2023-08-08T04:44:26;4.63;;;1.40;;
60896;SDS011;46749;32.932;-117.130;2023-08-08T04:46:52;3.42;;;1.05;;
60896;SDS011;46749;32.932;-117.130;2023-08-08T04:49:18;3.13;;;1.00;;
60896;SDS011;46749;32.932;-117.130;2023-08-08T04:51:45;3.47;;;1.20;;
60896;SDS011;46749;32.932;-117.130;2023-08-08T04:54:11;4.15;;;1.10;;
60896;SDS011;46749;32.932;-117.130;2023-08-08T04:56:37;3.00;;;0.93;;
60896;SDS011;46749;32.932;-117.130;2023-08-08T04:59:03;4.13;;;1.20;;
60896;SDS011;46749;32.932;-117.130;2023-08-08T05:01:29;4.47;;;1.20;;
60896;SDS011;46749;32.932;-117.130;2023-08-08T05:03:55;4.18;;;1.33;;
60896;SDS011;46749;32.932;-117.130;2023-08-08T05:06:22;3.05;;;1.10;;
60896;SDS011;46749;32.932;-117.130;2023-08-08T05:08:49;5.20;;;1.42;;
60896;SDS011;46749;32.932;-117.130;2023-08-08T05:11:17;5.50;;;1.08;;
60896;SDS011;46749;32.932;-117.130;2023-08-08T05:13:43;5.55;;;1.05;;
60896;SDS011;46749;32.932;-117.130;2023-08-08T05:16:09;3.65;;;1.00;;
60896;SDS011;46749;32.932;-117.130;2023-08-08T05:18:35;4.45;;;1.08;;
60896;SDS011;46749;32.932;-117.130;2023-08-08T05:21:01;4.93;;;1.25;;
60896;SDS011;46749;32.932;-117.130;2023-08-08T05:23:28;2.95;;;1.23;;
60896;SDS011;46749;32.932;-117.130;2023-08-08T05:25:54;2.30;;;0.95;;
60896;SDS011;46749;32.932;-117.130;2023-08-08T05:28:20;4.65;;;0.93;;
60896;SDS011;46749;32.932;-117.130;2023-08-08T05:30:46;4.10;;;1.15;;
60896;SDS011;46749;32.932;-117.130;2023-08-08T05:33:13;5.57;;;1.10;;
60896;SDS011;46749;32.932;-117.130;2023-08-08T05:35:39;2.75;;;0.95;;
60896;SDS011;46749;32.932;-117.130;2023-08-08T05:38:05;4.22;;;1.10;;
60896;SDS011;46749;32.932;-117.130;2023-08-08T05:40:35;4.85;;;1.38;;
60896;SDS011;46749;32.932;-117.130;2023-08-08T05:43:05;5.15;;;1.33;;
60896;SDS011;46749;32.932;-117.130;2023-08-08T05:45:31;1.67;;;0.90;;
60896;SDS011;46749;32.932;-117.130;2023-08-08T05:47:57;3.47;;;0.93;;
60896;SDS011;46749;32.932;-117.130;2023-08-08T05:50:28;5.70;;;1.50;;
60896;SDS011;46749;32.932;-117.130;2023-08-08T05:52:54;3.80;;;1.42;;
60896;SDS011;46749;32.932;-117.130;2023-08-08T05:55:20;3.25;;;1.00;;
60896;SDS011;46749;32.932;-117.130;2023-08-08T05:57:46;3.25;;;1.17;;
60896;SDS011;46749;32.932;-117.130;2023-08-08T06:00:12;2.55;;;1.05;;
60896;SDS011;46749;32.932;-117.130;2023-08-08T06:02:39;3.70;;;1.00;;
60896;SDS011;46749;32.932;-117.130;2023-08-08T06:05:05;3.65;;;1.48;;
60896;SDS011;46749;32.932;-117.130;2023-08-08T06:07:32;5.13;;;1.27;;
60896;SDS011;46749;32.932;-117.130;2023-08-08T06:09:58;3.45;;;0.93;;
60896;SDS011;46749;32.932;-117.130;2023-08-08T06:12:25;4.40;;;1.17;;
60896;SDS011;46749;32.932;-117.130;2023-08-08T06:14:51;3.45;;;1.33;;
60896;SDS011;46749;32.932;-117.130;2023-08-08T06:17:17;5.07;;;1.20;;
60896;SDS011;46749;32.932;-117.130;2023-08-08T06:19:43;5.07;;;1.00;;
60896;SDS011;46749;32.932;-117.130;2023-08-08T06:22:10;3.97;;;1.40;;
60896;SDS011;46749;32.932;-117.130;2023-08-08T06:24:37;3.30;;;1.00;;
60896;SDS011;46749;32.932;-117.130;2023-08-08T06:27:04;3.55;;;1.27;;
60896;SDS011;46749;32.932;-117.130;2023-08-08T06:29:30;3.42;;;0.80;;
60896;SDS011;46749;32.932;-117.130;2023-08-08T06:31:56;5.53;;;2.22;;
60896;SDS011;46749;32.932;-117.130;2023-08-08T06:34:22;3.63;;;1.00;;
60896;SDS011;46749;32.932;-117.130;2023-08-08T06:36:49;6.07;;;1.50;;
60896;SDS011;46749;32.932;-117.130;2023-08-08T06:39:15;3.05;;;1.10;;
60896;SDS011;46749;32.932;-117.130;2023-08-08T06:41:42;2.83;;;1.10;;
60896;SDS011;46749;32.932;-117.130;2023-08-08T06:44:08;4.05;;;1.10;;
60896;SDS011;46749;32.932;-117.130;2023-08-08T06:46:34;6.30;;;1.48;;
60896;SDS011;46749;32.932;-117.130;2023-08-08T06:49:00;2.05;;;1.00;;
60896;SDS011;46749;32.932;-117.130;2023-08-08T06:51:26;2.00;;;0.90;;
60896;SDS011;46749;32.932;-117.130;2023-08-08T06:53:53;2.50;;;1.00;;
60896;SDS011;46749;32.932;-117.130;2023-08-08T06:56:19;4.82;;;1.17;;
60896;SDS011;46749;32.932;-117.130;2023-08-08T06:58:45;1.75;;;1.08;;
60896;SDS011;46749;32.932;-117.130;2023-08-08T07:01:12;2.70;;;0.90;;
60896;SDS011;46749;32.932;-117.130;2023-08-08T07:03:39;2.88;;;0.80;;
60896;SDS011;46749;32.932;-117.130;2023-08-08T07:06:05;3.38;;;0.90;;
60896;SDS011;46749;32.932;-117.130;2023-08-08T07:08:31;4.75;;;1.35;;
60896;SDS011;46749;32.932;-117.130;2023-08-08T07:10:57;3.17;;;1.08;;
60896;SDS011;46749;32.932;-117.130;2023-08-08T07:13:23;2.72;;;0.93;;
60896;SDS011;46749;32.932;-117.130;2023-08-08T07:15:50;2.63;;;0.88;;
60896;SDS011;46749;32.932;-117.130;2023-08-08T07:18:16;2.15;;;0.80;;
60896;SDS011;46749;32.932;-117.130;2023-08-08T07:20:42;3.15;;;0.90;;
60896;SDS011;46749;32.932;-117.130;2023-08-08T07:23:09;2.67;;;1.13;;
60896;SDS011;46749;32.932;-117.130;2023-08-08T07:25:35;2.25;;;0.98;;
60896;SDS011;46749;32.932;-117.130;2023-08-08T07:28:01;3.42;;;1.02;;
60896;SDS011;46749;32.932;-117.130;2023-08-08T07:30:27;3.97;;;1.13;;
60896;SDS011;46749;32.932;-117.130;2023-08-08T07:32:53;1.35;;;0.75;;
60896;SDS011;46749;32.932;-117.130;2023-08-08T07:35:20;1.73;;;0.80;;
60896;SDS011;46749;32.932;-117.130;2023-08-08T07:37:46;1.77;;;0.77;;
60896;SDS011;46749;32.932;-117.130;2023-08-08T07:40:13;3.00;;;0.88;;
60896;SDS011;46749;32.932;-117.130;2023-08-08T07:42:43;4.45;;;1.05;;
60896;SDS011;46749;32.932;-117.130;2023-08-08T07:45:10;2.50;;;0.82;;
60896;SDS011;46749;32.932;-117.130;2023-08-08T07:47:36;1.88;;;0.75;;
60896;SDS011;46749;32.932;-117.130;2023-08-08T07:50:02;1.67;;;0.77;;
60896;SDS011;46749;32.932;-117.130;2023-08-08T07:52:29;2.40;;;0.90;;
60896;SDS011;46749;32.932;-117.130;2023-08-08T07:54:55;2.38;;;0.80;;
60896;SDS011;46749;32.932;-117.130;2023-08-08T07:57:21;3.05;;;1.00;;
60896;SDS011;46749;32.932;-117.130;2023-08-08T07:59:47;2.25;;;0.80;;
60896;SDS011;46749;32.932;-117.130;2023-08-08T08:02:13;2.47;;;0.80;;
60896;SDS011;46749;32.932;-117.130;2023-08-08T08:04:40;1.63;;;0.80;;
60896;SDS011;46749;32.932;-117.130;2023-08-08T08:07:06;2.60;;;0.80;;
60896;SDS011;46749;32.932;-117.130;2023-08-08T08:09:33;1.65;;;0.80;;
60896;SDS011;46749;32.932;-117.130;2023-08-08T08:11:59;3.17;;;0.90;;
60896;SDS011;46749;32.932;-117.130;2023-08-08T08:14:25;1.67;;;0.80;;
60896;SDS011;46749;32.932;-117.130;2023-08-08T08:16:52;1.25;;;0.60;;
60896;SDS011;46749;32.932;-117.130;2023-08-08T08:19:19;2.17;;;0.70;;
60896;SDS011;46749;32.932;-117.130;2023-08-08T08:21:45;1.85;;;0.57;;
60896;SDS011;46749;32.932;-117.130;2023-08-08T08:24:12;2.55;;;0.88;;
60896;SDS011;46749;32.932;-117.130;2023-08-08T08:26:38;2.83;;;0.70;;
60896;SDS011;46749;32.932;-117.130;2023-08-08T08:29:04;2.13;;;0.70;;
60896;SDS011;46749;32.932;-117.130;2023-08-08T08:31:30;1.85;;;0.60;;
60896;SDS011;46749;32.932;-117.130;2023-08-08T08:33:56;2.22;;;1.02;;
60896;SDS011;46749;32.932;-117.130;2023-08-08T08:36:23;1.10;;;0.80;;
60896;SDS011;46749;32.932;-117.130;2023-08-08T08:38:51;1.55;;;0.65;;
60896;SDS011;46749;32.932;-117.130;2023-08-08T08:41:18;2.17;;;0.90;;
60896;SDS011;46749;32.932;-117.130;2023-08-08T08:43:50;2.47;;;0.70;;
60896;SDS011;46749;32.932;-117.130;2023-08-08T08:46:18;0.50;;;0.50;;
60896;SDS011;46749;32.932;-117.130;2023-08-08T08:48:47;1.15;;;0.55;;
60896;SDS011;46749;32.932;-117.130;2023-08-08T08:51:15;2.60;;;0.80;;
60896;SDS011;46749;32.932;-117.130;2023-08-08T08:53:42;0.95;;;0.60;;
60896;SDS011;46749;32.932;-117.130;2023-08-08T08:56:12;1.65;;;0.70;;
60896;SDS011;46749;32.932;-117.130;2023-08-08T08:58:40;1.00;;;0.60;;
60896;SDS011;46749;32.932;-117.130;2023-08-08T09:01:07;1.92;;;0.68;;
60896;SDS011;46749;32.932;-117.130;2023-08-08T09:03:37;1.40;;;0.70;;
60896;SDS011;46749;32.932;-117.130;2023-08-08T09:06:04;1.85;;;0.70;;
60896;SDS011;46749;32.932;-117.130;2023-08-08T09:08:31;1.40;;;0.70;;
60896;SDS011;46749;32.932;-117.130;2023-08-08T09:10:57;1.55;;;0.50;;
60896;SDS011;46749;32.932;-117.130;2023-08-08T09:13:23;1.42;;;0.70;;
60896;SDS011;46749;32.932;-117.130;2023-08-08T09:15:52;2.60;;;0.70;;
60896;SDS011;46749;32.932;-117.130;2023-08-08T09:18:19;1.95;;;0.60;;
60896;SDS011;46749;32.932;-117.130;2023-08-08T09:20:50;1.13;;;0.60;;
60896;SDS011;46749;32.932;-117.130;2023-08-08T09:23:16;1.05;;;0.50;;
60896;SDS011;46749;32.932;-117.130;2023-08-08T09:26:02;1.30;;;0.57;;
60896;SDS011;46749;32.932;-117.130;2023-08-08T09:28:29;1.33;;;0.68;;
60896;SDS011;46749;32.932;-117.130;2023-08-08T09:30:55;0.73;;;0.45;;
60896;SDS011;46749;32.932;-117.130;2023-08-08T09:33:21;0.95;;;0.70;;
60896;SDS011;46749;32.932;-117.130;2023-08-08T09:35:47;1.52;;;0.68;;
60896;SDS011;46749;32.932;-117.130;2023-08-08T09:38:13;1.30;;;0.50;;
60896;SDS011;46749;32.932;-117.130;2023-08-08T09:40:40;1.55;;;0.70;;
60896;SDS011;46749;32.932;-117.130;2023-08-08T09:43:07;1.83;;;0.60;;
60896;SDS011;46749;32.932;-117.130;2023-08-08T09:45:37;1.50;;;0.60;;
60896;SDS011;46749;32.932;-117.130;2023-08-08T09:50:35;1.13;;;0.52;;
60896;SDS011;46749;32.932;-117.130;2023-08-08T09:53:02;1.33;;;0.50;;
60896;SDS011;46749;32.932;-117.130;2023-08-08T09:55:29;1.55;;;0.60;;
60896;SDS011;46749;32.932;-117.130;2023-08-08T09:57:56;1.83;;;0.80;;
60896;SDS011;46749;32.932;-117.130;2023-08-08T10:00:24;1.08;;;0.50;;
60896;SDS011;46749;32.932;-117.130;2023-08-08T10:02:53;1.75;;;0.70;;
60896;SDS011;46749;32.932;-117.130;2023-08-08T10:05:20;1.40;;;0.60;;
60896;SDS011;46749;32.932;-117.130;2023-08-08T10:07:47;1.60;;;0.70;;
60896;SDS011;46749;32.932;-117.130;2023-08-08T10:10:13;2.75;;;0.50;;
60896;SDS011;46749;32.932;-117.130;2023-08-08T10:12:41;1.23;;;0.40;;
60896;SDS011;46749;32.932;-117.130;2023-08-08T10:15:11;1.30;;;0.60;;
60896;SDS011;46749;32.932;-117.130;2023-08-08T10:17:37;1.00;;;0.50;;
60896;SDS011;46749;32.932;-117.130;2023-08-08T10:20:05;2.00;;;0.50;;
60896;SDS011;46749;32.932;-117.130;2023-08-08T10:22:51;1.27;;;0.50;;
60896;SDS011;46749;32.932;-117.130;2023-08-08T10:25:30;0.95;;;0.40;;
60896;SDS011;46749;32.932;-117.130;2023-08-08T10:28:07;1.55;;;0.50;;
60896;SDS011;46749;32.932;-117.130;2023-08-08T10:30:57;1.95;;;0.50;;
60896;SDS011;46749;32.932;-117.130;2023-08-08T10:35:57;1.23;;;0.50;;
60896;SDS011;46749;32.932;-117.130;2023-08-08T10:38:44;1.92;;;0.60;;
60896;SDS011;46749;32.932;-117.130;2023-08-08T10:41:14;0.75;;;0.50;;
60896;SDS011;46749;32.932;-117.130;2023-08-08T10:43:49;0.95;;;0.50;;
60896;SDS011;46749;32.932;-117.130;2023-08-08T10:48:59;2.78;;;0.60;;
60896;SDS011;46749;32.932;-117.130;2023-08-08T10:51:40;0.95;;;0.40;;
60896;SDS011;46749;32.932;-117.130;2023-08-08T10:54:18;1.50;;;0.60;;
60896;SDS011;46749;32.932;-117.130;2023-08-08T10:56:52;0.73;;;0.43;;
60896;SDS011;46749;32.932;-117.130;2023-08-08T10:59:21;0.63;;;0.47;;
60896;SDS011;46749;32.932;-117.130;2023-08-08T11:01:48;0.68;;;0.38;;
60896;SDS011;46749;32.932;-117.130;2023-08-08T11:04:20;0.82;;;0.47;;
60896;SDS011;46749;32.932;-117.130;2023-08-08T11:06:48;0.43;;;0.32;;
60896;SDS011;46749;32.932;-117.130;2023-08-08T11:09:15;1.40;;;0.50;;
60896;SDS011;46749;32.932;-117.130;2023-08-08T11:11:43;0.40;;;0.40;;
60896;SDS011;46749;32.932;-117.130;2023-08-08T11:14:12;0.70;;;0.30;;
60896;SDS011;46749;32.932;-117.130;2023-08-08T11:16:48;0.90;;;0.40;;
60896;SDS011;46749;32.932;-117.130;2023-08-08T11:19:16;0.80;;;0.40;;
60896;SDS011;46749;32.932;-117.130;2023-08-08T11:21:45;0.55;;;0.40;;
60896;SDS011;46749;32.932;-117.130;2023-08-08T11:24:12;0.43;;;0.40;;
60896;SDS011;46749;32.932;-117.130;2023-08-08T11:26:39;1.15;;;0.40;;
60896;SDS011;46749;32.932;-117.130;2023-08-08T11:29:07;0.73;;;0.50;;
60896;SDS011;46749;32.932;-117.130;2023-08-08T11:31:34;0.40;;;0.30;;
60896;SDS011;46749;32.932;-117.130;2023-08-08T11:34:00;0.82;;;0.40;;
60896;SDS011;46749;32.932;-117.130;2023-08-08T11:36:31;0.55;;;0.32;;
60896;SDS011;46749;32.932;-117.130;2023-08-08T11:38:59;0.30;;;0.20;;
60896;SDS011;46749;32.932;-117.130;2023-08-08T11:41:33;0.40;;;0.20;;
60896;SDS011;46749;32.932;-117.130;2023-08-08T11:44:02;0.45;;;0.30;;
60896;SDS011;46749;32.932;-117.130;2023-08-08T11:46:33;0.90;;;0.30;;
60896;SDS011;46749;32.932;-117.130;2023-08-08T11:49:06;0.20;;;0.20;;
60896;SDS011;46749;32.932;-117.130;2023-08-08T11:51:33;0.30;;;0.20;;
60896;SDS011;46749;32.932;-117.130;2023-08-08T11:54:00;0.40;;;0.28;;
60896;SDS011;46749;32.932;-117.130;2023-08-08T11:56:34;0.77;;;0.35;;
60896;SDS011;46749;32.932;-117.130;2023-08-08T11:59:02;0.75;;;0.20;;
60896;SDS011;46749;32.932;-117.130;2023-08-08T12:01:31;0.75;;;0.20;;
60896;SDS011;46749;32.932;-117.130;2023-08-08T12:03:58;0.38;;;0.20;;
60896;SDS011;46749;32.932;-117.130;2023-08-08T12:06:31;1.55;;;0.40;;
60896;SDS011;46749;32.932;-117.130;2023-08-08T12:08:57;0.20;;;0.20;;
60896;SDS011;46749;32.932;-117.130;2023-08-08T12:11:23;1.30;;;0.30;;
60896;SDS011;46749;32.932;-117.130;2023-08-08T12:13:50;0.30;;;0.10;;
60896;SDS011;46749;32.932;-117.130;2023-08-08T12:16:16;0.43;;;0.30;;
60896;SDS011;46749;32.932;-117.130;2023-08-08T12:18:43;0.82;;;0.35;;
60896;SDS011;46749;32.932;-117.130;2023-08-08T12:21:09;0.30;;;0.20;;
60896;SDS011;46749;32.932;-117.130;2023-08-08T12:23:36;0.30;;;0.25;;
60896;SDS011;46749;32.932;-117.130;2023-08-08T12:26:02;0.40;;;0.20;;
60896;SDS011;46749;32.932;-117.130;2023-08-08T12:28:33;0.20;;;0.20;;
60896;SDS011;46749;32.932;-117.130;2023-08-08T12:31:00;0.82;;;0.30;;
60896;SDS011;46749;32.932;-117.130;2023-08-08T12:33:26;0.50;;;0.20;;
60896;SDS011;46749;32.932;-117.130;2023-08-08T12:35:52;0.38;;;0.20;;
60896;SDS011;46749;32.932;-117.130;2023-08-08T12:38:19;0.28;;;0.17;;
60896;SDS011;46749;32.932;-117.130;2023-08-08T12:40:45;0.40;;;0.30;;
60896;SDS011;46749;32.932;-117.130;2023-08-08T12:43:12;0.20;;;0.20;;
60896;SDS011;46749;32.932;-117.130;2023-08-08T12:45:39;0.40;;;0.20;;
60896;SDS011;46749;32.932;-117.130;2023-08-08T12:48:05;0.20;;;0.20;;
60896;SDS011;46749;32.932;-117.130;2023-08-08T12:50:32;0.30;;;0.17;;
60896;SDS011;46749;32.932;-117.130;2023-08-08T12:52:58;0.20;;;0.20;;
60896;SDS011;46749;32.932;-117.130;2023-08-08T12:55:24;0.63;;;0.30;;
60896;SDS011;46749;32.932;-117.130;2023-08-08T12:57:50;0.75;;;0.20;;
60896;SDS011;46749;32.932;-117.130;2023-08-08T13:00:18;0.10;;;0.10;;
60896;SDS011;46749;32.932;-117.130;2023-08-08T13:02:45;0.20;;;0.20;;
60896;SDS011;46749;32.932;-117.130;2023-08-08T13:05:11;0.20;;;0.20;;
60896;SDS011;46749;32.932;-117.130;2023-08-08T13:07:37;0.55;;;0.20;;
60896;SDS011;46749;32.932;-117.130;2023-08-08T13:10:03;1.00;;;0.22;;
60896;SDS011;46749;32.932;-117.130;2023-08-08T13:12:30;0.32;;;0.30;;
60896;SDS011;46749;32.932;-117.130;2023-08-08T13:14:56;0.88;;;0.20;;
60896;SDS011;46749;32.932;-117.130;2023-08-08T13:17:22;0.82;;;0.22;;
60896;SDS011;46749;32.932;-117.130;2023-08-08T13:19:48;0.20;;;0.10;;
60896;SDS011;46749;32.932;-117.130;2023-08-08T13:22:14;0.50;;;0.20;;
60896;SDS011;46749;32.932;-117.130;2023-08-08T13:24:41;0.50;;;0.20;;
60896;SDS011;46749;32.932;-117.130;2023-08-08T13:27:07;0.35;;;0.10;;
60896;SDS011;46749;32.932;-117.130;2023-08-08T13:29:33;0.52;;;0.30;;
60896;SDS011;46749;32.932;-117.130;2023-08-08T13:31:59;0.40;;;0.10;;
60896;SDS011;46749;32.932;-117.130;2023-08-08T13:34:25;0.20;;;0.20;;
60896;SDS011;46749;32.932;-117.130;2023-08-08T13:36:51;0.80;;;0.38;;
60896;SDS011;46749;32.932;-117.130;2023-08-08T13:39:18;0.70;;;0.25;;
60896;SDS011;46749;32.932;-117.130;2023-08-08T13:41:44;0.95;;;0.20;;
60896;SDS011;46749;32.932;-117.130;2023-08-08T13:44:10;0.20;;;0.17;;
60896;SDS011;46749;32.932;-117.130;2023-08-08T13:46:36;0.40;;;0.30;;
60896;SDS011;46749;32.932;-117.130;2023-08-08T13:49:02;0.22;;;0.17;;
60896;SDS011;46749;32.932;-117.130;2023-08-08T13:51:28;0.38;;;0.10;;
60896;SDS011;46749;32.932;-117.130;2023-08-08T13:53:55;0.63;;;0.25;;
60896;SDS011;46749;32.932;-117.130;2023-08-08T13:56:21;0.60;;;0.10;;
60896;SDS011;46749;32.932;-117.130;2023-08-08T13:58:47;0.22;;;0.10;;
60896;SDS011;46749;32.932;-117.130;2023-08-08T14:01:14;0.10;;;0.10;;
60896;SDS011;46749;32.932;-117.130;2023-08-08T14:03:40;0.43;;;0.20;;
60896;SDS011;46749;32.932;-117.130;2023-08-08T14:06:06;0.52;;;0.20;;
60896;SDS011;46749;32.932;-117.130;2023-08-08T14:08:33;0.80;;;0.20;;
60896;SDS011;46749;32.932;-117.130;2023-08-08T14:10:59;0.30;;;0.20;;
60896;SDS011;46749;32.932;-117.130;2023-08-08T14:13:25;0.65;;;0.10;;
60896;SDS011;46749;32.932;-117.130;2023-08-08T14:15:51;0.28;;;0.17;;
60896;SDS011;46749;32.932;-117.130;2023-08-08T14:18:18;0.25;;;0.10;;
60896;SDS011;46749;32.932;-117.130;2023-08-08T14:20:44;0.35;;;0.10;;